Main page
METAR-TAF:

METAR-TAF

Airports :

Campina Grande Airport

Campina Grande, Paraíba, Brazil

latitude: 07-13S, longitude: 035-53W, elevation: 548 m

Current weather observation

The report was made 1 hour and 14 minutes ago, at 09:00 UTC
Wind 6 kt from the East/Southeast
Temperature 21°C
Humidity 94%
Pressure 1015 hPa
Visibility 10 km or more
Few clouds at a height of 1200 ft
Scattered clouds at a height of 1500 ft

METAR: SBKG 140900Z 12006KT 9999 FEW012 SCT015 21/20 Q1015

Time: 08:14 (10:14 UTC)

Forecast

The report was made 6 hours and 14 minutes ago, at 04:00 UTC
Forecast valid from 14 at 06 UTC to 14 at 18 UTC
Wind 8 kt from the East/Southeast
Visibility 10 km or more
no clouds below 1500 m and no cumulonimbus
Becoming
from 14 at 09 UTC to 14 at 11 UTC
Scattered clouds at a height of 3000 ft

TAF: SBKG 140400Z 1406/1418 12008KT CAVOK TN21/1406Z TX31/1416Z BECMG 1409/1411 SCT030 RMK PEH

Weather observations and forecasts of more than 4000 airports (METAR and TAF reports).

The available stations are represented by yellow and red dots on the map.

Hover mouse over dot to see the name of the station.

Then click to see weather observations and forecasts.

To change the map : click on the green buttons with a black cross to zoom in, on the green button with a dash to zoom out, or on the green arrows for adjacent maps.


METAR-TAF: